createdAt,value
2024-03-26T00:00:12.812Z,99272.98
2024-03-26T00:02:59.978Z,99277.96
2024-03-26T00:05:27.221Z,99279.36
2024-03-26T00:07:54.351Z,99277.14
2024-03-26T00:10:21.562Z,99276.31
2024-03-26T00:12:48.740Z,99277.02
2024-03-26T00:15:16.033Z,99279.77
2024-03-26T00:17:43.266Z,99280.98
2024-03-26T00:20:11.387Z,99284.61
2024-03-26T00:22:38.569Z,99283.77
2024-03-26T00:25:06.122Z,99281.04
2024-03-26T00:27:33.323Z,99283.09
2024-03-26T00:30:00.538Z,99282.24
2024-03-26T00:32:28.370Z,99281.93
2024-03-26T00:34:55.557Z,99289.30
2024-03-26T00:37:22.717Z,99293.25
2024-03-26T00:39:49.864Z,99295.48
2024-03-26T00:42:17.039Z,99291.21
2024-03-26T00:44:44.230Z,99290.19
2024-03-26T00:47:11.413Z,99291.89
2024-03-26T00:49:39.255Z,99296.02
2024-03-26T00:52:06.476Z,99294.83
2024-03-26T00:54:33.839Z,99293.27
2024-03-26T00:57:01.046Z,99298.59
2024-03-26T00:59:29.279Z,99301.86
2024-03-26T01:01:56.550Z,99306.14
2024-03-26T01:04:24.155Z,99306.50
2024-03-26T01:06:51.290Z,99307.88
2024-03-26T01:09:18.442Z,99310.59
2024-03-26T01:11:48.785Z,99314.73
2024-03-26T01:14:15.979Z,99312.67
2024-03-26T01:16:43.172Z,99315.23
2024-03-26T01:19:10.385Z,99315.06
2024-03-26T01:21:37.530Z,99320.54
2024-03-26T01:24:04.834Z,99319.85
2024-03-26T01:26:32.016Z,99321.39
2024-03-26T01:28:59.229Z,99321.73
2024-03-26T01:31:26.422Z,99319.52
2024-03-26T01:33:53.620Z,99325.67
2024-03-26T01:36:20.785Z,99332.34
2024-03-26T01:38:47.924Z,99333.21
2024-03-26T01:41:15.091Z,99331.48
2024-03-26T01:43:42.256Z,99330.95
2024-03-26T01:46:10.082Z,99334.74
2024-03-26T01:48:37.288Z,99336.63
2024-03-26T01:51:05.186Z,99337.47
2024-03-26T01:53:32.394Z,99337.46
2024-03-26T01:56:00.686Z,99339.52
2024-03-26T01:58:28.392Z,99340.89
2024-03-26T02:00:58.602Z,99339.86
2024-03-26T02:03:25.908Z,99340.02
2024-03-26T02:05:53.221Z,99338.16
2024-03-26T02:08:20.536Z,99340.02
2024-03-26T02:10:47.707Z,99341.23
2024-03-26T02:13:14.842Z,99343.61
2024-03-26T02:15:41.998Z,99342.58
2024-03-26T02:18:09.194Z,99348.58
2024-03-26T02:20:37.980Z,99350.11
2024-03-26T02:23:05.127Z,99352.33
2024-03-26T02:25:32.608Z,99352.17
2024-03-26T02:27:59.778Z,99354.73
2024-03-26T02:30:26.941Z,99356.63
2024-03-26T02:32:54.088Z,99360.39
2024-03-26T02:35:21.268Z,99362.44
2024-03-26T02:37:49.360Z,99364.65
2024-03-26T02:40:16.635Z,99366.02
2024-03-26T02:42:43.782Z,99367.58
2024-03-26T02:45:11.211Z,99362.77
2024-03-26T02:47:38.350Z,99367.39
2024-03-26T02:50:06.435Z,99371.00
2024-03-26T02:52:33.942Z,99373.41
2024-03-26T02:55:01.290Z,99375.81
2024-03-26T02:57:28.594Z,99377.86
2024-03-26T02:59:55.759Z,99378.39
2024-03-26T03:02:22.936Z,99381.30
2024-03-26T03:04:50.079Z,99379.75
2024-03-26T03:07:17.280Z,99382.67
2024-03-26T03:09:47.047Z,99377.17
2024-03-26T03:12:14.202Z,99381.27
2024-03-26T03:14:43.911Z,99380.61
2024-03-26T03:17:11.058Z,99383.69
2024-03-26T03:19:38.210Z,99384.73
2024-03-26T03:22:05.425Z,99383.36
2024-03-26T03:24:32.564Z,99377.70
2024-03-26T03:26:59.709Z,99376.35
2024-03-26T03:29:26.901Z,99380.46
2024-03-26T03:31:54.082Z,99378.39
2024-03-26T03:34:21.432Z,99382.69
2024-03-26T03:36:48.578Z,99384.05
2024-03-26T03:39:16.554Z,99383.55
2024-03-26T03:41:43.721Z,99387.84
2024-03-26T03:44:12.878Z,99392.27
2024-03-26T03:46:40.027Z,99395.19
2024-03-26T03:49:07.196Z,99398.45
2024-03-26T03:51:36.564Z,99398.44
2024-03-26T03:54:03.909Z,99397.58
2024-03-26T03:56:31.125Z,99398.44
2024-03-26T03:58:58.293Z,99397.08
2024-03-26T04:01:25.441Z,99403.23
2024-03-26T04:03:52.638Z,99403.92
2024-03-26T04:06:19.839Z,99407.34
2024-03-26T04:08:47.047Z,99410.93
2024-03-26T04:11:14.222Z,99412.30
2024-03-26T04:13:41.441Z,99409.91
2024-03-26T04:16:08.580Z,99407.67
2024-03-26T04:18:36.432Z,99409.05
2024-03-26T04:21:04.059Z,99412.63
2024-03-26T04:23:31.194Z,99410.39
2024-03-26T04:25:58.560Z,99406.63
2024-03-26T04:28:28.681Z,99405.77
2024-03-26T04:30:56.129Z,99407.31
2024-03-26T04:33:23.379Z,99409.36
2024-03-26T04:35:50.573Z,99411.93
2024-03-26T04:38:17.758Z,99414.66
2024-03-26T04:40:45.735Z,99417.40
2024-03-26T04:43:13.031Z,99418.10
2024-03-26T04:45:40.173Z,99423.23
2024-03-26T04:48:07.779Z,99421.67
2024-03-26T04:50:35.075Z,99424.23
2024-03-26T04:53:02.584Z,99421.33
2024-03-26T04:55:30.448Z,99425.10
2024-03-26T04:57:57.641Z,99426.98
2024-03-26T05:00:24.902Z,99425.45
2024-03-26T05:02:52.069Z,99423.23
2024-03-26T05:05:19.659Z,99421.02
2024-03-26T05:07:46.885Z,99425.47
2024-03-26T05:10:14.055Z,99422.56
2024-03-26T05:12:43.677Z,99429.42
2024-03-26T05:15:11.005Z,99431.66
2024-03-26T05:17:38.167Z,99439.20
2024-03-26T05:20:06.136Z,99439.39
2024-03-26T05:22:33.274Z,99443.86
2024-03-26T05:25:00.413Z,99448.31
2024-03-26T05:27:27.690Z,99454.66
2024-03-26T05:29:54.884Z,99458.44
2024-03-26T05:32:22.706Z,99458.60
2024-03-26T05:34:50.317Z,99467.32
2024-03-26T05:37:17.944Z,99464.58
2024-03-26T05:39:45.186Z,99465.62
2024-03-26T05:42:12.495Z,99467.33
2024-03-26T05:44:39.694Z,99469.23
2024-03-26T05:47:07.077Z,99463.06
2024-03-26T05:49:35.279Z,99465.29
2024-03-26T05:52:02.945Z,99466.00
2024-03-26T05:54:30.130Z,99462.58
2024-03-26T05:56:57.323Z,99461.73
2024-03-26T05:59:24.513Z,99461.92
2024-03-26T06:01:51.672Z,99461.06
2024-03-26T06:04:18.864Z,99463.64
2024-03-26T06:06:46.167Z,99458.14
2024-03-26T06:09:13.479Z,99459.52
2024-03-26T06:11:40.788Z,99459.34
2024-03-26T06:14:08.384Z,99454.87
2024-03-26T06:16:35.781Z,99456.60
2024-03-26T06:19:04.250Z,99456.56
2024-03-26T06:21:31.503Z,99455.36
2024-03-26T06:23:58.786Z,99453.27
2024-03-26T06:26:26.320Z,99454.98
2024-03-26T06:28:53.462Z,99457.68
2024-03-26T06:31:20.652Z,99460.05
2024-03-26T06:33:47.873Z,99459.34
2024-03-26T06:36:15.026Z,99457.95
2024-03-26T06:38:42.186Z,99456.90
2024-03-26T06:41:10.037Z,99455.72
2024-03-26T06:43:37.273Z,99455.20
2024-03-26T06:46:05.152Z,99451.75
2024-03-26T06:48:33.023Z,99451.60
2024-03-26T06:51:00.774Z,99455.88
2024-03-26T06:53:27.991Z,99454.14
2024-03-26T06:55:55.670Z,99451.17
2024-03-26T06:58:23.172Z,99455.42
2024-03-26T07:00:51.515Z,99459.34
2024-03-26T07:03:18.777Z,99458.96
2024-03-26T07:05:45.942Z,99458.76
2024-03-26T07:08:13.272Z,99457.87
2024-03-26T07:10:40.455Z,99457.48
2024-03-26T07:13:08.332Z,99458.63
2024-03-26T07:15:35.956Z,99460.94
2024-03-26T07:18:03.273Z,99464.45
2024-03-26T07:20:30.562Z,99464.35
2024-03-26T07:22:57.760Z,99462.86
2024-03-26T07:25:24.961Z,99470.31
2024-03-26T07:27:52.105Z,99468.13
2024-03-26T07:30:19.353Z,99464.55
2024-03-26T07:32:46.546Z,99462.36
2024-03-26T07:35:13.753Z,99457.05
2024-03-26T07:37:41.109Z,99457.44
2024-03-26T07:40:10.467Z,99454.90
2024-03-26T07:42:38.263Z,99455.80
2024-03-26T07:45:05.838Z,99456.02
2024-03-26T07:47:33.286Z,99456.58
2024-03-26T07:50:00.672Z,99457.45
2024-03-26T07:52:28.142Z,99459.55
2024-03-26T07:54:55.380Z,99455.77
2024-03-26T07:57:22.633Z,99459.44
2024-03-26T07:59:49.914Z,99465.68
2024-03-26T08:02:17.614Z,99461.56
2024-03-26T08:04:46.311Z,99460.70
2024-03-26T08:07:13.520Z,99460.27
2024-03-26T08:09:40.696Z,99457.37
2024-03-26T08:12:08.489Z,99451.17
2024-03-26T08:14:37.900Z,99450.27
2024-03-26T08:17:05.053Z,99444.39
2024-03-26T08:19:33.199Z,99441.70
2024-03-26T08:22:00.804Z,99444.52
2024-03-26T08:24:28.170Z,99441.89
2024-03-26T08:26:55.585Z,99439.89
2024-03-26T08:29:22.840Z,99439.73
2024-03-26T08:31:50.576Z,99439.52
2024-03-26T08:34:18.439Z,99436.17
2024-03-26T08:36:45.749Z,99433.92
2024-03-26T08:39:14.847Z,99427.91
2024-03-26T08:41:42.004Z,99426.52
2024-03-26T08:44:09.345Z,99429.83
2024-03-26T08:46:39.742Z,99425.58
2024-03-26T08:49:07.036Z,99427.54
2024-03-26T08:51:34.200Z,99429.93
2024-03-26T08:54:01.484Z,99431.89
2024-03-26T08:56:28.717Z,99434.23
2024-03-26T08:58:56.574Z,99429.02
2024-03-26T09:01:23.732Z,99426.98
2024-03-26T09:03:51.463Z,99429.96
2024-03-26T09:06:18.654Z,99428.03
2024-03-26T09:08:45.885Z,99429.30
2024-03-26T09:11:13.035Z,99427.83
2024-03-26T09:13:42.750Z,99429.95
2024-03-26T09:16:10.324Z,99430.77
2024-03-26T09:18:38.022Z,99430.67
2024-03-26T09:21:05.811Z,99424.27
2024-03-26T09:23:32.918Z,99426.59
2024-03-26T09:26:00.067Z,99430.77
2024-03-26T09:28:27.244Z,99430.61
2024-03-26T09:30:56.019Z,99428.71
2024-03-26T09:33:23.115Z,99424.84
2024-03-26T09:35:50.512Z,99428.84
2024-03-26T09:38:18.695Z,99432.27
2024-03-26T09:40:48.693Z,99433.44
2024-03-26T09:43:19.468Z,99433.04
2024-03-26T09:45:52.338Z,99430.21
2024-03-26T09:48:19.908Z,99426.13
2024-03-26T09:50:48.955Z,99421.14
2024-03-26T09:53:21.544Z,99416.84
2024-03-26T09:55:50.327Z,99418.10
2024-03-26T09:58:18.023Z,99413.15
2024-03-26T10:00:49.992Z,99411.02
2024-03-26T10:03:21.039Z,99409.98
2024-03-26T10:05:48.643Z,99402.48
2024-03-26T10:08:15.905Z,99405.30
2024-03-26T10:10:43.259Z,99405.11
2024-03-26T10:13:12.089Z,99401.15
2024-03-26T10:15:39.830Z,99396.64
2024-03-26T10:18:07.522Z,99388.40
2024-03-26T10:20:34.666Z,99386.09
2024-03-26T10:23:07.450Z,99385.73
2024-03-26T10:25:35.094Z,99382.23
2024-03-26T10:28:03.737Z,99378.02
2024-03-26T10:30:31.087Z,99376.88
2024-03-26T10:32:59.690Z,99372.98
2024-03-26T10:35:30.981Z,99376.00
2024-03-26T10:38:10.399Z,99371.23
2024-03-26T10:41:01.203Z,99366.35
2024-03-26T10:43:31.934Z,99369.65
2024-03-26T10:46:07.928Z,99369.77
2024-03-26T10:48:44.421Z,99372.42
2024-03-26T10:51:18.275Z,99370.61
2024-03-26T10:53:48.015Z,99368.09
2024-03-26T10:56:16.286Z,99366.45
2024-03-26T10:58:43.586Z,99358.47
2024-03-26T11:01:13.615Z,99360.64
2024-03-26T11:03:41.123Z,99359.23
2024-03-26T11:06:11.512Z,99354.61
2024-03-26T11:08:41.192Z,99348.14
2024-03-26T11:11:08.383Z,99346.85
2024-03-26T11:13:38.153Z,99345.27
2024-03-26T11:16:09.519Z,99341.05
2024-03-26T11:18:40.448Z,99334.92
2024-03-26T11:21:09.307Z,99338.70
2024-03-26T11:23:38.082Z,99332.79
2024-03-26T11:26:05.215Z,99336.34
2024-03-26T11:28:33.093Z,99334.65
2024-03-26T11:31:02.807Z,99323.74
2024-03-26T11:33:31.540Z,99317.67
2024-03-26T11:35:59.412Z,99309.77
2024-03-26T11:38:29.399Z,99315.10
2024-03-26T11:41:07.638Z,99306.52
2024-03-26T11:43:37.583Z,99295.66
2024-03-26T11:46:05.371Z,99288.88
2024-03-26T11:48:32.770Z,99286.96
2024-03-26T11:51:02.151Z,99290.20
2024-03-26T11:53:29.498Z,99285.60
2024-03-26T11:55:56.818Z,99280.91
2024-03-26T11:58:27.625Z,99281.25
2024-03-26T12:00:55.245Z,99284.26
2024-03-26T12:03:23.437Z,99279.95
2024-03-26T12:05:51.594Z,99276.11
2024-03-26T12:08:18.912Z,99279.10
2024-03-26T12:10:46.192Z,99274.30
2024-03-26T12:13:13.447Z,99270.86
2024-03-26T12:15:40.652Z,99271.77
2024-03-26T12:18:07.865Z,99275.86
2024-03-26T12:20:35.081Z,99272.77
2024-03-26T12:23:03.787Z,99270.33
2024-03-26T12:25:31.681Z,99271.58
2024-03-26T12:28:00.294Z,99279.38
2024-03-26T12:30:35.320Z,99277.44
2024-03-26T12:33:04.203Z,99277.42
2024-03-26T12:35:31.535Z,99273.95
2024-03-26T12:37:58.766Z,99265.25
2024-03-26T12:40:29.139Z,99264.66
2024-03-26T12:42:56.441Z,99259.23
2024-03-26T12:45:24.125Z,99255.50
2024-03-26T12:47:51.304Z,99252.80
2024-03-26T12:50:18.470Z,99248.16
2024-03-26T12:52:46.003Z,99251.73
2024-03-26T12:55:15.817Z,99252.30
2024-03-26T12:57:44.045Z,99253.96
2024-03-26T13:00:12.123Z,99253.86
2024-03-26T13:02:39.326Z,99244.89
2024-03-26T13:05:06.765Z,99247.86
2024-03-26T13:07:37.166Z,99245.73
2024-03-26T13:10:05.396Z,99242.25
2024-03-26T13:12:32.562Z,99242.23
2024-03-26T13:14:59.868Z,99238.77
2024-03-26T13:17:27.038Z,99240.73
2024-03-26T13:19:56.101Z,99237.71
2024-03-26T13:22:24.691Z,99230.30
2024-03-26T13:24:55.782Z,99218.70
2024-03-26T13:27:23.052Z,99222.80
2024-03-26T13:29:50.294Z,99233.64
2024-03-26T13:32:19.745Z,99233.00
2024-03-26T13:34:47.177Z,99233.05
2024-03-26T13:37:14.393Z,99224.92
2024-03-26T13:39:42.145Z,99215.72
2024-03-26T13:42:09.612Z,99207.70
2024-03-26T13:44:36.781Z,99203.59
2024-03-26T13:47:04.129Z,99199.67
2024-03-26T13:49:31.312Z,99192.81
2024-03-26T13:51:58.572Z,99186.06
2024-03-26T13:54:25.754Z,99184.14
2024-03-26T13:56:52.929Z,99177.48
2024-03-26T13:59:20.178Z,99173.77
2024-03-26T14:01:47.605Z,99165.91
2024-03-26T14:04:14.961Z,99165.25
2024-03-26T14:06:42.155Z,99163.88
2024-03-26T14:09:09.999Z,99160.16
2024-03-26T14:11:37.141Z,99160.89
2024-03-26T14:14:04.870Z,99152.17
2024-03-26T14:16:32.019Z,99146.99
2024-03-26T14:18:59.158Z,99142.77
2024-03-26T14:21:26.335Z,99140.54
2024-03-26T14:23:53.468Z,99144.34
2024-03-26T14:26:20.658Z,99139.62
2024-03-26T14:28:47.855Z,99139.69
2024-03-26T14:31:18.011Z,99129.83
2024-03-26T14:33:45.199Z,99126.95
2024-03-26T14:36:13.350Z,99128.08
2024-03-26T14:38:41.322Z,99120.48
2024-03-26T14:41:08.775Z,99115.77
2024-03-26T14:43:36.127Z,99114.44
2024-03-26T14:46:04.064Z,99108.55
2024-03-26T14:48:31.321Z,99108.61
2024-03-26T14:51:01.026Z,99110.25
2024-03-26T14:53:28.230Z,99104.79
2024-03-26T14:55:58.406Z,99100.13
2024-03-26T14:58:25.569Z,99096.67
2024-03-26T15:00:52.752Z,99092.14
2024-03-26T15:03:21.841Z,99088.08
2024-03-26T15:05:49.911Z,99081.12
2024-03-26T15:08:17.120Z,99070.83
2024-03-26T15:10:44.305Z,99064.64
2024-03-26T15:13:11.499Z,99055.20
2024-03-26T15:15:38.793Z,99052.87
2024-03-26T15:18:06.328Z,99051.92
2024-03-26T15:20:35.822Z,99049.80
2024-03-26T15:23:03.899Z,99047.14
2024-03-26T15:25:31.155Z,99044.38
2024-03-26T15:28:01.345Z,99041.80
2024-03-26T15:30:31.609Z,99035.95
2024-03-26T15:32:58.802Z,99031.55
2024-03-26T15:35:26.146Z,99031.14
2024-03-26T15:37:53.303Z,99026.56
2024-03-26T15:40:20.482Z,99026.66
2024-03-26T15:42:47.650Z,99026.23
2024-03-26T15:45:14.902Z,99026.17
2024-03-26T15:47:42.091Z,99035.67
2024-03-26T15:50:10.715Z,99021.36
2024-03-26T15:52:37.874Z,99018.44
2024-03-26T15:55:05.258Z,99018.37
2024-03-26T15:57:32.426Z,99011.32
2024-03-26T15:59:59.601Z,99011.05
2024-03-26T16:02:26.883Z,99006.39
2024-03-26T16:04:54.043Z,99000.34
2024-03-26T16:07:21.944Z,99000.33
2024-03-26T16:10:04.224Z,98993.68
2024-03-26T16:12:36.301Z,98993.96
2024-03-26T16:15:05.137Z,99002.58
2024-03-26T16:17:32.340Z,99002.73
2024-03-26T16:20:00.579Z,99003.02
2024-03-26T16:22:27.816Z,98999.95
2024-03-26T16:24:55.307Z,98998.07
2024-03-26T16:27:22.580Z,98997.05
2024-03-26T16:29:50.202Z,98997.72
2024-03-26T16:32:18.666Z,98998.13
2024-03-26T16:34:49.261Z,98995.45
2024-03-26T16:37:16.693Z,98991.30
2024-03-26T16:39:44.154Z,98995.28
2024-03-26T16:42:11.332Z,98994.45
2024-03-26T16:44:40.854Z,98996.36
2024-03-26T16:47:08.067Z,98999.94
2024-03-26T16:49:35.232Z,99003.48
2024-03-26T16:52:02.417Z,99004.14
2024-03-26T16:54:29.862Z,99003.90
2024-03-26T16:56:57.019Z,98999.88
2024-03-26T16:59:25.283Z,99000.72
2024-03-26T17:01:55.127Z,98999.48
2024-03-26T17:04:22.599Z,99002.27
2024-03-26T17:06:49.846Z,98999.34
2024-03-26T17:09:16.978Z,99000.31
2024-03-26T17:11:44.261Z,98998.98
2024-03-26T17:14:12.279Z,98994.60
2024-03-26T17:16:59.218Z,98991.63
2024-03-26T17:19:29.452Z,98990.16
2024-03-26T17:21:56.951Z,98989.20
2024-03-26T17:24:24.264Z,98990.09
2024-03-26T17:26:52.134Z,98989.29
2024-03-26T17:29:19.453Z,98982.92
2024-03-26T17:31:47.729Z,98980.85
2024-03-26T17:34:15.159Z,98981.40
2024-03-26T17:36:42.419Z,98984.92
2024-03-26T17:39:10.169Z,98980.91
2024-03-26T17:41:37.401Z,98974.44
2024-03-26T17:44:05.483Z,98966.44
2024-03-26T17:46:32.638Z,98961.89
2024-03-26T17:48:59.876Z,98963.13
2024-03-26T17:51:27.072Z,98961.07
2024-03-26T17:53:54.314Z,98963.35
2024-03-26T17:56:21.474Z,98961.65
2024-03-26T17:58:51.200Z,98964.76
2024-03-26T18:01:18.385Z,98967.86
2024-03-26T18:03:45.589Z,98966.74
2024-03-26T18:06:16.390Z,98970.42
2024-03-26T18:08:43.647Z,98970.20
2024-03-26T18:11:11.195Z,98974.56
2024-03-26T18:13:38.703Z,98974.16
2024-03-26T18:16:06.412Z,98976.08
2024-03-26T18:18:33.872Z,98980.90
2024-03-26T18:21:05.095Z,98981.58
2024-03-26T18:23:34.188Z,98981.34
2024-03-26T18:26:03.637Z,98983.23
2024-03-26T18:28:31.082Z,98985.68
2024-03-26T18:30:59.478Z,98984.80
2024-03-26T18:33:26.964Z,98989.27
2024-03-26T18:36:02.394Z,98989.92
2024-03-26T18:38:31.367Z,98993.05
2024-03-26T18:41:06.316Z,98990.39
2024-03-26T18:43:35.002Z,98985.67
2024-03-26T18:46:14.160Z,98982.52
2024-03-26T18:48:42.594Z,98981.58
2024-03-26T18:51:10.263Z,98980.09
2024-03-26T18:53:37.467Z,98980.04
2024-03-26T18:56:07.116Z,98978.90
2024-03-26T18:58:38.709Z,98981.23
2024-03-26T19:01:12.100Z,98984.26
2024-03-26T19:03:39.623Z,98985.91
2024-03-26T19:06:06.991Z,98987.70
2024-03-26T19:08:34.182Z,98987.92
2024-03-26T19:11:02.200Z,98991.27
2024-03-26T19:13:29.485Z,98988.25
2024-03-26T19:15:56.687Z,98989.55
2024-03-26T19:18:24.388Z,98989.09
2024-03-26T19:20:53.744Z,98993.32
2024-03-26T19:23:22.147Z,98990.11
2024-03-26T19:25:55.323Z,98990.41
2024-03-26T19:28:22.561Z,98990.00
2024-03-26T19:30:49.720Z,98988.88
2024-03-26T19:33:19.428Z,98988.75
2024-03-26T19:35:46.719Z,98990.69
2024-03-26T19:38:14.231Z,98986.41
2024-03-26T19:40:41.395Z,98982.66
2024-03-26T19:43:08.556Z,98979.30
2024-03-26T19:45:36.540Z,98978.99
2024-03-26T19:48:06.975Z,98974.36
2024-03-26T19:50:36.260Z,98974.45
2024-03-26T19:53:03.691Z,98974.16
2024-03-26T19:55:30.915Z,98974.73
2024-03-26T19:57:58.104Z,98976.66
2024-03-26T20:00:25.237Z,98971.66
2024-03-26T20:02:52.435Z,98973.29
2024-03-26T20:05:20.078Z,98973.65
2024-03-26T20:07:49.374Z,98972.83
2024-03-26T20:10:16.584Z,98970.95
2024-03-26T20:12:44.772Z,98974.29
2024-03-26T20:15:12.467Z,98966.38
2024-03-26T20:17:39.633Z,98971.80
2024-03-26T20:20:15.877Z,98965.62
2024-03-26T20:22:43.208Z,98965.38
2024-03-26T20:25:10.396Z,98963.54
2024-03-26T20:27:37.550Z,98963.59
2024-03-26T20:30:05.660Z,98964.73
2024-03-26T20:32:32.837Z,98962.88
2024-03-26T20:35:00.717Z,98959.14
2024-03-26T20:37:27.874Z,98960.56
2024-03-26T20:39:55.419Z,98956.65
2024-03-26T20:42:22.665Z,98957.92
2024-03-26T20:44:51.774Z,98954.04
2024-03-26T20:47:18.954Z,98950.52
2024-03-26T20:49:46.152Z,98951.64
2024-03-26T20:52:13.350Z,98952.22
2024-03-26T20:54:40.585Z,98947.08
2024-03-26T20:57:07.863Z,98952.30
2024-03-26T20:59:35.035Z,98948.20
2024-03-26T21:02:02.464Z,98948.45
2024-03-26T21:04:29.664Z,98944.15
2024-03-26T21:06:58.929Z,98937.61
2024-03-26T21:09:26.831Z,98939.59
2024-03-26T21:11:54.074Z,98941.55
2024-03-26T21:14:21.755Z,98940.05
2024-03-26T21:16:50.130Z,98936.48
2024-03-26T21:19:18.307Z,98931.89
2024-03-26T21:21:45.615Z,98928.17
2024-03-26T21:24:12.788Z,98924.56
2024-03-26T21:26:40.345Z,98925.12
2024-03-26T21:29:07.551Z,98918.30
2024-03-26T21:31:35.071Z,98917.67
2024-03-26T21:34:02.237Z,98920.84
2024-03-26T21:36:29.583Z,98912.11
2024-03-26T21:38:57.324Z,98916.31
2024-03-26T21:41:24.502Z,98909.27
2024-03-26T21:43:51.628Z,98902.74
2024-03-26T21:46:18.787Z,98903.31
2024-03-26T21:48:46.437Z,98901.29
2024-03-26T21:51:16.561Z,98898.38
2024-03-26T21:53:43.731Z,98897.15
2024-03-26T21:56:11.980Z,98895.63
2024-03-26T21:58:39.150Z,98888.77
2024-03-26T22:01:11.279Z,98890.05
2024-03-26T22:03:39.117Z,98887.34
2024-03-26T22:06:13.890Z,98886.16
2024-03-26T22:08:42.493Z,98884.01
2024-03-26T22:11:12.159Z,98881.25
2024-03-26T22:13:41.369Z,98881.30
2024-03-26T22:16:09.699Z,98880.33
2024-03-26T22:18:39.115Z,98877.11
2024-03-26T22:21:11.694Z,98875.40
2024-03-26T22:23:38.900Z,98871.79
2024-03-26T22:26:09.042Z,98865.59
2024-03-26T22:28:36.647Z,98864.65
2024-03-26T22:31:05.363Z,98861.90
2024-03-26T22:33:36.487Z,98857.07
2024-03-26T22:36:08.648Z,98851.76
2024-03-26T22:38:37.086Z,98855.38
2024-03-26T22:41:06.320Z,98851.44
2024-03-26T22:43:41.362Z,98849.21
2024-03-26T22:46:10.350Z,98845.31
2024-03-26T22:48:38.657Z,98842.85
2024-03-26T22:51:05.941Z,98840.94
2024-03-26T22:53:39.022Z,98835.08
2024-03-26T22:56:08.358Z,98836.15
2024-03-26T22:58:49.534Z,98837.89
2024-03-26T23:01:17.279Z,98838.20
2024-03-26T23:03:46.863Z,98836.51
2024-03-26T23:06:14.376Z,98831.67
2024-03-26T23:08:56.154Z,98830.49
2024-03-26T23:11:37.392Z,98824.80
2024-03-26T23:14:11.880Z,98824.64
2024-03-26T23:16:39.095Z,98824.48
2024-03-26T23:19:14.068Z,98819.66
2024-03-26T23:21:41.725Z,98812.91
2024-03-26T23:24:22.888Z,98814.14
2024-03-26T23:27:04.768Z,98806.71
2024-03-26T23:29:45.971Z,98803.98
2024-03-26T23:32:27.590Z,98798.45
2024-03-26T23:35:08.878Z,98799.85
2024-03-26T23:37:50.426Z,98797.27
2024-03-26T23:40:26.981Z,98793.81
2024-03-26T23:42:54.225Z,98790.22
2024-03-26T23:45:29.169Z,98788.13
2024-03-26T23:48:01.874Z,98784.85
2024-03-26T23:50:29.051Z,98780.58
2024-03-26T23:52:58.733Z,98776.83
2024-03-26T23:55:26.455Z,98778.64
2024-03-26T23:57:55.853Z,98778.02
